Portada
METAR-TAF:

METAR-TAF

Aeroports :

Sanikiluaq, Nunavut, Canadà

latitud: 56-32N, longitud: 079-15W, altitud: 32 m

Observació

L'informe es va fer fa 3 hores i 6 minuts, a les 17:00 UTC
Vent 5 kt del Est
Temperatura 10°C
Humitat 76%
Pressió 1016 hPa
Visibilitat: 24.1 km
Escasses núvols a una alçada de 24000 ft

METAR: CYSK 151700Z 08005KT 15SM FEW240 10/06 A2999 RMK CS2 LAST OBS/NEXT161200UTC SLP158

Hora: 16:06 (20:06 UTC)


TAF: manca

Observacions i pronòstics meteorològics de més de 4000 aeroports (METAR i TAF).

Les estacions disponibles són els punts grocs i vermells al mapa.

Posi el ratolí al punt desitjat per veure el nom de l'estació.

Feu clic per veure les observacions i els pronòstics meteorològics.

Per canviar el mapa: feu clic els botons verds amb una creu de color negre per apropar; al botó verd amb un guió per allunyar la imatge; o en les fletxes verdes per a mapes adjacents.


METAR-TAF: